sensor_id;sensor_type;location;lat;lon;timestamp;P1;durP1;ratioP1;P2;durP2;ratioP2
6388;SDS011;3227;42.654;23.360;2023-12-20T00:02:18;30.47;;;16.13;;
6388;SDS011;3227;42.654;23.360;2023-12-20T00:04:44;30.07;;;15.93;;
6388;SDS011;3227;42.654;23.360;2023-12-20T00:07:11;29.77;;;15.80;;
6388;SDS011;3227;42.654;23.360;2023-12-20T00:09:38;33.37;;;16.93;;
6388;SDS011;3227;42.654;23.360;2023-12-20T00:12:05;28.73;;;15.57;;
6388;SDS011;3227;42.654;23.360;2023-12-20T00:14:32;34.03;;;17.40;;
6388;SDS011;3227;42.654;23.360;2023-12-20T00:17:00;29.50;;;15.17;;
6388;SDS011;3227;42.654;23.360;2023-12-20T00:19:27;34.17;;;16.70;;
6388;SDS011;3227;42.654;23.360;2023-12-20T00:21:54;33.33;;;16.13;;
6388;SDS011;3227;42.654;23.360;2023-12-20T00:24:20;28.57;;;16.93;;
6388;SDS011;3227;42.654;23.360;2023-12-20T00:26:47;38.27;;;17.23;;
6388;SDS011;3227;42.654;23.360;2023-12-20T00:29:14;30.73;;;17.33;;
6388;SDS011;3227;42.654;23.360;2023-12-20T00:31:40;32.90;;;17.80;;
6388;SDS011;3227;42.654;23.360;2023-12-20T00:34:09;33.67;;;17.93;;
6388;SDS011;3227;42.654;23.360;2023-12-20T00:36:35;31.33;;;17.57;;
6388;SDS011;3227;42.654;23.360;2023-12-20T00:39:03;30.23;;;16.77;;
6388;SDS011;3227;42.654;23.360;2023-12-20T00:41:29;32.40;;;17.43;;
6388;SDS011;3227;42.654;23.360;2023-12-20T00:43:56;27.07;;;15.73;;
6388;SDS011;3227;42.654;23.360;2023-12-20T00:46:23;28.40;;;15.23;;
6388;SDS011;3227;42.654;23.360;2023-12-20T00:48:50;33.60;;;16.60;;
6388;SDS011;3227;42.654;23.360;2023-12-20T00:51:18;32.20;;;16.43;;
6388;SDS011;3227;42.654;23.360;2023-12-20T00:53:44;27.83;;;15.37;;
6388;SDS011;3227;42.654;23.360;2023-12-20T00:56:14;30.30;;;15.20;;
6388;SDS011;3227;42.654;23.360;2023-12-20T00:58:41;33.63;;;16.20;;
6388;SDS011;3227;42.654;23.360;2023-12-20T01:01:07;31.57;;;15.53;;
6388;SDS011;3227;42.654;23.360;2023-12-20T01:03:34;30.30;;;14.57;;
6388;SDS011;3227;42.654;23.360;2023-12-20T01:06:01;30.40;;;15.17;;
6388;SDS011;3227;42.654;23.360;2023-12-20T01:08:31;29.63;;;15.73;;
6388;SDS011;3227;42.654;23.360;2023-12-20T01:10:59;26.97;;;15.03;;
6388;SDS011;3227;42.654;23.360;2023-12-20T01:13:26;27.03;;;11.97;;
6388;SDS011;3227;42.654;23.360;2023-12-20T01:15:53;24.87;;;13.43;;
6388;SDS011;3227;42.654;23.360;2023-12-20T01:18:20;27.77;;;14.07;;
6388;SDS011;3227;42.654;23.360;2023-12-20T01:20:47;25.90;;;12.97;;
6388;SDS011;3227;42.654;23.360;2023-12-20T01:23:14;27.10;;;14.50;;
6388;SDS011;3227;42.654;23.360;2023-12-20T01:25:42;31.83;;;17.00;;
6388;SDS011;3227;42.654;23.360;2023-12-20T01:28:09;27.90;;;15.60;;
6388;SDS011;3227;42.654;23.360;2023-12-20T01:30:35;27.67;;;15.57;;
6388;SDS011;3227;42.654;23.360;2023-12-20T01:33:02;32.63;;;17.53;;
6388;SDS011;3227;42.654;23.360;2023-12-20T01:35:29;28.43;;;16.27;;
6388;SDS011;3227;42.654;23.360;2023-12-20T01:37:56;35.47;;;17.00;;
6388;SDS011;3227;42.654;23.360;2023-12-20T01:40:23;31.03;;;15.60;;
6388;SDS011;3227;42.654;23.360;2023-12-20T01:42:58;20.30;;;10.43;;
6388;SDS011;3227;42.654;23.360;2023-12-20T01:45:26;16.87;;;9.63;;
6388;SDS011;3227;42.654;23.360;2023-12-20T01:47:53;17.93;;;10.33;;
6388;SDS011;3227;42.654;23.360;2023-12-20T01:50:20;19.57;;;9.83;;
6388;SDS011;3227;42.654;23.360;2023-12-20T01:52:48;14.70;;;8.63;;
6388;SDS011;3227;42.654;23.360;2023-12-20T01:55:17;13.57;;;6.50;;
6388;SDS011;3227;42.654;23.360;2023-12-20T01:57:44;13.53;;;6.80;;
6388;SDS011;3227;42.654;23.360;2023-12-20T02:00:14;14.87;;;7.40;;
6388;SDS011;3227;42.654;23.360;2023-12-20T02:02:41;19.80;;;9.00;;
6388;SDS011;3227;42.654;23.360;2023-12-20T02:05:09;17.33;;;8.80;;
6388;SDS011;3227;42.654;23.360;2023-12-20T02:07:37;20.60;;;9.23;;
6388;SDS011;3227;42.654;23.360;2023-12-20T02:10:04;20.87;;;10.97;;
6388;SDS011;3227;42.654;23.360;2023-12-20T02:12:31;17.97;;;9.90;;
6388;SDS011;3227;42.654;23.360;2023-12-20T02:14:58;19.73;;;11.33;;
6388;SDS011;3227;42.654;23.360;2023-12-20T02:17:26;14.93;;;8.03;;
6388;SDS011;3227;42.654;23.360;2023-12-20T02:19:54;14.93;;;7.67;;
6388;SDS011;3227;42.654;23.360;2023-12-20T02:22:22;18.87;;;9.67;;
6388;SDS011;3227;42.654;23.360;2023-12-20T02:24:49;17.73;;;9.70;;
6388;SDS011;3227;42.654;23.360;2023-12-20T02:27:15;18.77;;;10.07;;
6388;SDS011;3227;42.654;23.360;2023-12-20T02:29:44;21.57;;;9.70;;
6388;SDS011;3227;42.654;23.360;2023-12-20T02:32:13;15.67;;;8.97;;
6388;SDS011;3227;42.654;23.360;2023-12-20T02:34:40;23.40;;;11.93;;
6388;SDS011;3227;42.654;23.360;2023-12-20T02:37:07;18.97;;;11.10;;
6388;SDS011;3227;42.654;23.360;2023-12-20T02:39:35;21.67;;;11.87;;
6388;SDS011;3227;42.654;23.360;2023-12-20T02:42:02;22.30;;;11.83;;
6388;SDS011;3227;42.654;23.360;2023-12-20T02:44:29;22.57;;;13.93;;
6388;SDS011;3227;42.654;23.360;2023-12-20T02:46:56;26.13;;;13.90;;
6388;SDS011;3227;42.654;23.360;2023-12-20T02:49:22;25.90;;;14.30;;
6388;SDS011;3227;42.654;23.360;2023-12-20T02:51:49;22.80;;;13.20;;
6388;SDS011;3227;42.654;23.360;2023-12-20T02:54:16;23.40;;;12.57;;
6388;SDS011;3227;42.654;23.360;2023-12-20T02:56:44;30.03;;;15.00;;
6388;SDS011;3227;42.654;23.360;2023-12-20T02:59:11;36.10;;;19.30;;
6388;SDS011;3227;42.654;23.360;2023-12-20T03:01:41;48.20;;;23.00;;
6388;SDS011;3227;42.654;23.360;2023-12-20T03:04:09;50.80;;;28.73;;
6388;SDS011;3227;42.654;23.360;2023-12-20T03:06:35;57.33;;;28.73;;
6388;SDS011;3227;42.654;23.360;2023-12-20T03:09:02;58.90;;;31.87;;
6388;SDS011;3227;42.654;23.360;2023-12-20T03:11:29;60.83;;;32.93;;
6388;SDS011;3227;42.654;23.360;2023-12-20T03:13:58;64.40;;;31.60;;
6388;SDS011;3227;42.654;23.360;2023-12-20T03:16:24;64.67;;;30.37;;
6388;SDS011;3227;42.654;23.360;2023-12-20T03:18:51;53.13;;;28.63;;
6388;SDS011;3227;42.654;23.360;2023-12-20T03:21:18;48.33;;;27.17;;
6388;SDS011;3227;42.654;23.360;2023-12-20T03:23:45;62.87;;;30.77;;
6388;SDS011;3227;42.654;23.360;2023-12-20T03:26:12;58.27;;;30.63;;
6388;SDS011;3227;42.654;23.360;2023-12-20T03:28:39;55.63;;;27.17;;
6388;SDS011;3227;42.654;23.360;2023-12-20T03:31:07;39.37;;;21.97;;
6388;SDS011;3227;42.654;23.360;2023-12-20T03:33:35;36.57;;;20.80;;
6388;SDS011;3227;42.654;23.360;2023-12-20T03:36:02;44.70;;;21.80;;
6388;SDS011;3227;42.654;23.360;2023-12-20T03:41:27;34.63;;;19.27;;
6388;SDS011;3227;42.654;23.360;2023-12-20T03:43:53;45.03;;;24.03;;
6388;SDS011;3227;42.654;23.360;2023-12-20T03:46:21;50.93;;;25.97;;
6388;SDS011;3227;42.654;23.360;2023-12-20T03:48:48;42.20;;;22.63;;
6388;SDS011;3227;42.654;23.360;2023-12-20T03:51:15;47.53;;;25.87;;
6388;SDS011;3227;42.654;23.360;2023-12-20T03:53:42;49.57;;;25.90;;
6388;SDS011;3227;42.654;23.360;2023-12-20T03:56:09;47.13;;;22.93;;
6388;SDS011;3227;42.654;23.360;2023-12-20T03:58:35;31.97;;;18.20;;
6388;SDS011;3227;42.654;23.360;2023-12-20T04:01:02;32.93;;;19.03;;
6388;SDS011;3227;42.654;23.360;2023-12-20T04:03:31;43.83;;;21.70;;
6388;SDS011;3227;42.654;23.360;2023-12-20T04:05:57;40.63;;;22.57;;
6388;SDS011;3227;42.654;23.360;2023-12-20T04:08:24;38.40;;;21.43;;
6388;SDS011;3227;42.654;23.360;2023-12-20T04:10:51;39.83;;;19.07;;
6388;SDS011;3227;42.654;23.360;2023-12-20T04:13:18;40.33;;;21.30;;
6388;SDS011;3227;42.654;23.360;2023-12-20T04:15:44;39.17;;;21.47;;
6388;SDS011;3227;42.654;23.360;2023-12-20T04:18:11;42.87;;;22.07;;
6388;SDS011;3227;42.654;23.360;2023-12-20T04:20:39;39.70;;;19.70;;
6388;SDS011;3227;42.654;23.360;2023-12-20T04:23:06;39.80;;;22.13;;
6388;SDS011;3227;42.654;23.360;2023-12-20T04:25:33;40.03;;;20.13;;
6388;SDS011;3227;42.654;23.360;2023-12-20T04:27:59;44.23;;;20.80;;
6388;SDS011;3227;42.654;23.360;2023-12-20T04:30:26;38.50;;;20.67;;
6388;SDS011;3227;42.654;23.360;2023-12-20T04:32:53;33.97;;;17.77;;
6388;SDS011;3227;42.654;23.360;2023-12-20T04:35:20;30.40;;;15.63;;
6388;SDS011;3227;42.654;23.360;2023-12-20T04:37:48;29.77;;;17.30;;
6388;SDS011;3227;42.654;23.360;2023-12-20T04:40:15;23.20;;;13.43;;
6388;SDS011;3227;42.654;23.360;2023-12-20T04:42:42;24.87;;;14.90;;
6388;SDS011;3227;42.654;23.360;2023-12-20T04:45:09;31.93;;;16.87;;
6388;SDS011;3227;42.654;23.360;2023-12-20T04:47:38;31.17;;;17.90;;
6388;SDS011;3227;42.654;23.360;2023-12-20T04:50:05;38.03;;;18.13;;
6388;SDS011;3227;42.654;23.360;2023-12-20T04:52:33;30.60;;;17.53;;
6388;SDS011;3227;42.654;23.360;2023-12-20T04:55:01;33.60;;;18.00;;
6388;SDS011;3227;42.654;23.360;2023-12-20T04:57:28;41.17;;;20.67;;
6388;SDS011;3227;42.654;23.360;2023-12-20T04:59:54;41.57;;;20.80;;
6388;SDS011;3227;42.654;23.360;2023-12-20T05:02:21;43.03;;;22.77;;
6388;SDS011;3227;42.654;23.360;2023-12-20T05:04:48;49.17;;;25.83;;
6388;SDS011;3227;42.654;23.360;2023-12-20T05:07:15;49.27;;;25.00;;
6388;SDS011;3227;42.654;23.360;2023-12-20T05:09:42;50.80;;;25.20;;
6388;SDS011;3227;42.654;23.360;2023-12-20T05:12:10;47.70;;;26.60;;
6388;SDS011;3227;42.654;23.360;2023-12-20T05:14:36;49.17;;;24.63;;
6388;SDS011;3227;42.654;23.360;2023-12-20T05:17:03;51.60;;;27.63;;
6388;SDS011;3227;42.654;23.360;2023-12-20T05:19:30;53.70;;;28.30;;
6388;SDS011;3227;42.654;23.360;2023-12-20T05:22:00;46.37;;;28.27;;
6388;SDS011;3227;42.654;23.360;2023-12-20T05:24:27;52.83;;;29.17;;
6388;SDS011;3227;42.654;23.360;2023-12-20T05:26:54;50.30;;;29.37;;
6388;SDS011;3227;42.654;23.360;2023-12-20T05:29:22;49.53;;;26.07;;
6388;SDS011;3227;42.654;23.360;2023-12-20T05:31:49;51.40;;;28.83;;
6388;SDS011;3227;42.654;23.360;2023-12-20T05:34:15;50.60;;;26.43;;
6388;SDS011;3227;42.654;23.360;2023-12-20T05:36:42;57.07;;;28.67;;
6388;SDS011;3227;42.654;23.360;2023-12-20T05:39:09;55.40;;;28.43;;
6388;SDS011;3227;42.654;23.360;2023-12-20T05:41:36;47.00;;;26.23;;
6388;SDS011;3227;42.654;23.360;2023-12-20T05:44:03;49.77;;;27.57;;
6388;SDS011;3227;42.654;23.360;2023-12-20T05:46:31;54.10;;;26.97;;
6388;SDS011;3227;42.654;23.360;2023-12-20T05:48:58;50.63;;;26.03;;
6388;SDS011;3227;42.654;23.360;2023-12-20T05:51:25;46.57;;;27.37;;
6388;SDS011;3227;42.654;23.360;2023-12-20T05:53:52;55.23;;;25.93;;
6388;SDS011;3227;42.654;23.360;2023-12-20T05:56:18;45.03;;;24.43;;
6388;SDS011;3227;42.654;23.360;2023-12-20T05:58:45;47.83;;;26.20;;
6388;SDS011;3227;42.654;23.360;2023-12-20T06:01:12;42.10;;;22.93;;
6388;SDS011;3227;42.654;23.360;2023-12-20T06:03:43;48.70;;;24.27;;
6388;SDS011;3227;42.654;23.360;2023-12-20T06:06:11;56.80;;;25.20;;
6388;SDS011;3227;42.654;23.360;2023-12-20T06:08:38;54.83;;;26.40;;
6388;SDS011;3227;42.654;23.360;2023-12-20T06:11:05;50.80;;;24.10;;
6388;SDS011;3227;42.654;23.360;2023-12-20T06:13:31;48.30;;;25.67;;
6388;SDS011;3227;42.654;23.360;2023-12-20T06:15:58;49.27;;;25.77;;
6388;SDS011;3227;42.654;23.360;2023-12-20T06:18:25;46.33;;;25.20;;
6388;SDS011;3227;42.654;23.360;2023-12-20T06:20:54;45.13;;;22.30;;
6388;SDS011;3227;42.654;23.360;2023-12-20T06:23:21;46.03;;;25.53;;
6388;SDS011;3227;42.654;23.360;2023-12-20T06:25:48;46.00;;;24.60;;
6388;SDS011;3227;42.654;23.360;2023-12-20T06:28:15;43.13;;;23.63;;
6388;SDS011;3227;42.654;23.360;2023-12-20T06:30:41;43.17;;;23.87;;
6388;SDS011;3227;42.654;23.360;2023-12-20T06:33:08;47.33;;;22.60;;
6388;SDS011;3227;42.654;23.360;2023-12-20T06:35:36;45.30;;;23.83;;
6388;SDS011;3227;42.654;23.360;2023-12-20T06:38:04;50.47;;;24.37;;
6388;SDS011;3227;42.654;23.360;2023-12-20T06:40:31;40.07;;;22.77;;
6388;SDS011;3227;42.654;23.360;2023-12-20T06:42:58;46.80;;;24.40;;
6388;SDS011;3227;42.654;23.360;2023-12-20T06:45:25;47.67;;;23.73;;
6388;SDS011;3227;42.654;23.360;2023-12-20T06:47:52;43.33;;;21.70;;
6388;SDS011;3227;42.654;23.360;2023-12-20T06:50:20;48.27;;;22.23;;
6388;SDS011;3227;42.654;23.360;2023-12-20T06:52:46;45.70;;;22.67;;
6388;SDS011;3227;42.654;23.360;2023-12-20T06:55:15;47.30;;;22.87;;
6388;SDS011;3227;42.654;23.360;2023-12-20T06:57:42;43.73;;;23.07;;
6388;SDS011;3227;42.654;23.360;2023-12-20T07:00:10;47.97;;;23.90;;
6388;SDS011;3227;42.654;23.360;2023-12-20T07:02:38;46.30;;;24.50;;
6388;SDS011;3227;42.654;23.360;2023-12-20T07:05:05;48.67;;;24.83;;
6388;SDS011;3227;42.654;23.360;2023-12-20T07:07:32;37.77;;;23.10;;
6388;SDS011;3227;42.654;23.360;2023-12-20T07:10:00;38.97;;;22.83;;
6388;SDS011;3227;42.654;23.360;2023-12-20T07:12:28;48.67;;;23.93;;
6388;SDS011;3227;42.654;23.360;2023-12-20T07:14:54;60.37;;;32.00;;
6388;SDS011;3227;42.654;23.360;2023-12-20T07:17:21;52.13;;;27.10;;
6388;SDS011;3227;42.654;23.360;2023-12-20T07:19:48;55.88;;;31.48;;
6388;SDS011;3227;42.654;23.360;2023-12-20T07:22:15;46.67;;;25.77;;
6388;SDS011;3227;42.654;23.360;2023-12-20T07:24:42;44.53;;;24.83;;
6388;SDS011;3227;42.654;23.360;2023-12-20T07:27:08;49.23;;;25.20;;
6388;SDS011;3227;42.654;23.360;2023-12-20T07:29:36;44.87;;;25.67;;
6388;SDS011;3227;42.654;23.360;2023-12-20T07:32:03;37.30;;;23.30;;
6388;SDS011;3227;42.654;23.360;2023-12-20T07:34:31;49.07;;;25.80;;
6388;SDS011;3227;42.654;23.360;2023-12-20T07:36:57;53.97;;;25.53;;
6388;SDS011;3227;42.654;23.360;2023-12-20T07:39:24;47.63;;;24.73;;
6388;SDS011;3227;42.654;23.360;2023-12-20T07:41:51;45.97;;;24.77;;
6388;SDS011;3227;42.654;23.360;2023-12-20T07:44:18;39.50;;;23.80;;
6388;SDS011;3227;42.654;23.360;2023-12-20T07:46:46;45.63;;;24.63;;
6388;SDS011;3227;42.654;23.360;2023-12-20T07:49:13;43.67;;;22.37;;
6388;SDS011;3227;42.654;23.360;2023-12-20T07:51:40;39.47;;;22.60;;
6388;SDS011;3227;42.654;23.360;2023-12-20T07:54:07;41.47;;;21.77;;
6388;SDS011;3227;42.654;23.360;2023-12-20T07:56:34;36.33;;;19.90;;
6388;SDS011;3227;42.654;23.360;2023-12-20T07:59:00;36.17;;;19.00;;
6388;SDS011;3227;42.654;23.360;2023-12-20T08:01:27;35.10;;;19.40;;
6388;SDS011;3227;42.654;23.360;2023-12-20T08:03:55;37.27;;;20.47;;
6388;SDS011;3227;42.654;23.360;2023-12-20T08:06:22;37.50;;;19.80;;
6388;SDS011;3227;42.654;23.360;2023-12-20T08:08:49;35.23;;;19.00;;
6388;SDS011;3227;42.654;23.360;2023-12-20T08:11:16;37.80;;;18.90;;
6388;SDS011;3227;42.654;23.360;2023-12-20T08:13:43;40.63;;;19.97;;
6388;SDS011;3227;42.654;23.360;2023-12-20T08:16:10;41.75;;;24.95;;
6388;SDS011;3227;42.654;23.360;2023-12-20T08:18:38;43.50;;;21.03;;
6388;SDS011;3227;42.654;23.360;2023-12-20T08:21:06;43.30;;;20.90;;
6388;SDS011;3227;42.654;23.360;2023-12-20T08:23:33;40.83;;;20.73;;
6388;SDS011;3227;42.654;23.360;2023-12-20T08:26:03;37.20;;;19.53;;
6388;SDS011;3227;42.654;23.360;2023-12-20T08:28:30;38.17;;;20.47;;
6388;SDS011;3227;42.654;23.360;2023-12-20T08:30:57;41.13;;;21.33;;
6388;SDS011;3227;42.654;23.360;2023-12-20T08:33:24;42.83;;;21.10;;
6388;SDS011;3227;42.654;23.360;2023-12-20T08:35:51;48.67;;;22.07;;
6388;SDS011;3227;42.654;23.360;2023-12-20T08:38:19;43.17;;;20.63;;
6388;SDS011;3227;42.654;23.360;2023-12-20T08:40:45;45.00;;;21.17;;
6388;SDS011;3227;42.654;23.360;2023-12-20T08:43:13;41.80;;;21.37;;
6388;SDS011;3227;42.654;23.360;2023-12-20T08:45:40;44.87;;;21.63;;
6388;SDS011;3227;42.654;23.360;2023-12-20T08:48:07;53.37;;;22.93;;
6388;SDS011;3227;42.654;23.360;2023-12-20T08:50:32;50.97;;;22.23;;
6388;SDS011;3227;42.654;23.360;2023-12-20T08:52:59;52.37;;;22.70;;
6388;SDS011;3227;42.654;23.360;2023-12-20T08:55:27;42.93;;;22.23;;
6388;SDS011;3227;42.654;23.360;2023-12-20T08:57:56;50.20;;;22.67;;
6388;SDS011;3227;42.654;23.360;2023-12-20T09:00:22;43.90;;;22.97;;
6388;SDS011;3227;42.654;23.360;2023-12-20T09:02:52;51.07;;;25.70;;
6388;SDS011;3227;42.654;23.360;2023-12-20T09:05:19;54.10;;;22.80;;
6388;SDS011;3227;42.654;23.360;2023-12-20T09:07:46;57.47;;;23.70;;
6388;SDS011;3227;42.654;23.360;2023-12-20T09:10:12;60.07;;;24.67;;
6388;SDS011;3227;42.654;23.360;2023-12-20T09:12:41;53.87;;;23.17;;
6388;SDS011;3227;42.654;23.360;2023-12-20T09:15:08;56.93;;;26.17;;
6388;SDS011;3227;42.654;23.360;2023-12-20T09:17:35;54.33;;;23.83;;
6388;SDS011;3227;42.654;23.360;2023-12-20T09:20:01;50.23;;;23.70;;
6388;SDS011;3227;42.654;23.360;2023-12-20T09:22:31;54.77;;;24.33;;
6388;SDS011;3227;42.654;23.360;2023-12-20T09:24:58;51.03;;;24.20;;
6388;SDS011;3227;42.654;23.360;2023-12-20T09:27:25;63.40;;;25.87;;
6388;SDS011;3227;42.654;23.360;2023-12-20T09:29:53;55.30;;;25.97;;
6388;SDS011;3227;42.654;23.360;2023-12-20T09:32:20;54.20;;;22.37;;
6388;SDS011;3227;42.654;23.360;2023-12-20T09:34:47;57.10;;;25.90;;
6388;SDS011;3227;42.654;23.360;2023-12-20T09:37:14;70.73;;;26.40;;
6388;SDS011;3227;42.654;23.360;2023-12-20T09:39:41;49.27;;;25.13;;
6388;SDS011;3227;42.654;23.360;2023-12-20T09:42:07;56.70;;;24.70;;
6388;SDS011;3227;42.654;23.360;2023-12-20T09:44:37;55.53;;;23.63;;
6388;SDS011;3227;42.654;23.360;2023-12-20T09:47:08;53.73;;;24.83;;
6388;SDS011;3227;42.654;23.360;2023-12-20T09:49:36;51.57;;;24.50;;
6388;SDS011;3227;42.654;23.360;2023-12-20T09:52:04;62.50;;;25.43;;
6388;SDS011;3227;42.654;23.360;2023-12-20T09:54:33;55.13;;;24.80;;
6388;SDS011;3227;42.654;23.360;2023-12-20T09:57:00;65.27;;;24.23;;
6388;SDS011;3227;42.654;23.360;2023-12-20T09:59:27;56.50;;;23.80;;
6388;SDS011;3227;42.654;23.360;2023-12-20T10:01:54;54.47;;;24.23;;
6388;SDS011;3227;42.654;23.360;2023-12-20T10:04:24;57.83;;;25.17;;
6388;SDS011;3227;42.654;23.360;2023-12-20T10:06:51;54.57;;;23.87;;
6388;SDS011;3227;42.654;23.360;2023-12-20T10:09:17;50.17;;;24.73;;
6388;SDS011;3227;42.654;23.360;2023-12-20T10:11:44;52.23;;;25.23;;
6388;SDS011;3227;42.654;23.360;2023-12-20T10:14:11;47.60;;;23.17;;
6388;SDS011;3227;42.654;23.360;2023-12-20T10:16:39;46.03;;;23.37;;
6388;SDS011;3227;42.654;23.360;2023-12-20T10:19:07;62.73;;;26.00;;
6388;SDS011;3227;42.654;23.360;2023-12-20T10:21:35;64.07;;;25.67;;
6388;SDS011;3227;42.654;23.360;2023-12-20T10:24:02;50.67;;;25.90;;
6388;SDS011;3227;42.654;23.360;2023-12-20T10:26:29;54.13;;;24.47;;
6388;SDS011;3227;42.654;23.360;2023-12-20T10:28:56;51.97;;;26.03;;
6388;SDS011;3227;42.654;23.360;2023-12-20T10:31:27;54.27;;;25.70;;
6388;SDS011;3227;42.654;23.360;2023-12-20T10:33:55;54.43;;;25.60;;
6388;SDS011;3227;42.654;23.360;2023-12-20T10:36:24;67.40;;;27.13;;
6388;SDS011;3227;42.654;23.360;2023-12-20T10:38:53;53.93;;;25.43;;
6388;SDS011;3227;42.654;23.360;2023-12-20T10:41:24;50.53;;;25.73;;
6388;SDS011;3227;42.654;23.360;2023-12-20T10:43:53;53.30;;;27.20;;
6388;SDS011;3227;42.654;23.360;2023-12-20T10:46:22;62.90;;;32.33;;
6388;SDS011;3227;42.654;23.360;2023-12-20T10:48:51;51.00;;;27.00;;
6388;SDS011;3227;42.654;23.360;2023-12-20T10:51:20;54.50;;;24.40;;
6388;SDS011;3227;42.654;23.360;2023-12-20T10:53:48;49.60;;;25.27;;
6388;SDS011;3227;42.654;23.360;2023-12-20T10:56:17;48.23;;;23.53;;
6388;SDS011;3227;42.654;23.360;2023-12-20T10:58:44;55.87;;;24.93;;
6388;SDS011;3227;42.654;23.360;2023-12-20T11:01:12;60.27;;;26.13;;
6388;SDS011;3227;42.654;23.360;2023-12-20T11:03:42;52.57;;;26.37;;
6388;SDS011;3227;42.654;23.360;2023-12-20T11:06:12;52.87;;;24.47;;
6388;SDS011;3227;42.654;23.360;2023-12-20T11:08:46;51.67;;;24.27;;
6388;SDS011;3227;42.654;23.360;2023-12-20T11:11:19;55.60;;;25.37;;
6388;SDS011;3227;42.654;23.360;2023-12-20T11:13:53;49.23;;;23.60;;
6388;SDS011;3227;42.654;23.360;2023-12-20T11:16:23;50.10;;;24.97;;
6388;SDS011;3227;42.654;23.360;2023-12-20T11:18:50;51.63;;;24.90;;
6388;SDS011;3227;42.654;23.360;2023-12-20T11:21:17;47.67;;;22.70;;
6388;SDS011;3227;42.654;23.360;2023-12-20T11:23:44;50.70;;;24.80;;
6388;SDS011;3227;42.654;23.360;2023-12-20T11:26:12;47.70;;;23.80;;
6388;SDS011;3227;42.654;23.360;2023-12-20T11:28:43;64.70;;;26.70;;
6388;SDS011;3227;42.654;23.360;2023-12-20T11:31:10;54.07;;;24.43;;
6388;SDS011;3227;42.654;23.360;2023-12-20T11:33:40;54.87;;;25.50;;
6388;SDS011;3227;42.654;23.360;2023-12-20T11:36:12;52.80;;;24.10;;
6388;SDS011;3227;42.654;23.360;2023-12-20T11:38:48;53.17;;;24.97;;
6388;SDS011;3227;42.654;23.360;2023-12-20T11:41:21;58.43;;;24.83;;
6388;SDS011;3227;42.654;23.360;2023-12-20T11:43:51;58.50;;;26.17;;
6388;SDS011;3227;42.654;23.360;2023-12-20T11:46:19;47.40;;;25.33;;
6388;SDS011;3227;42.654;23.360;2023-12-20T11:48:46;55.17;;;25.67;;
6388;SDS011;3227;42.654;23.360;2023-12-20T11:51:14;58.40;;;26.33;;
6388;SDS011;3227;42.654;23.360;2023-12-20T11:53:41;56.37;;;26.93;;
6388;SDS011;3227;42.654;23.360;2023-12-20T11:56:10;59.27;;;26.57;;
6388;SDS011;3227;42.654;23.360;2023-12-20T11:58:37;56.90;;;25.73;;
6388;SDS011;3227;42.654;23.360;2023-12-20T12:01:06;51.63;;;25.00;;
6388;SDS011;3227;42.654;23.360;2023-12-20T12:03:33;49.90;;;24.83;;
6388;SDS011;3227;42.654;23.360;2023-12-20T12:06:00;51.37;;;25.23;;
6388;SDS011;3227;42.654;23.360;2023-12-20T12:08:29;48.57;;;25.67;;
6388;SDS011;3227;42.654;23.360;2023-12-20T12:10:56;53.20;;;26.00;;
6388;SDS011;3227;42.654;23.360;2023-12-20T12:13:23;46.33;;;23.50;;
6388;SDS011;3227;42.654;23.360;2023-12-20T12:15:52;51.60;;;24.20;;
6388;SDS011;3227;42.654;23.360;2023-12-20T12:18:21;49.90;;;23.63;;
6388;SDS011;3227;42.654;23.360;2023-12-20T12:20:47;43.17;;;22.63;;
6388;SDS011;3227;42.654;23.360;2023-12-20T12:23:15;43.67;;;22.47;;
6388;SDS011;3227;42.654;23.360;2023-12-20T12:25:49;39.30;;;21.53;;
6388;SDS011;3227;42.654;23.360;2023-12-20T12:28:16;40.27;;;21.87;;
6388;SDS011;3227;42.654;23.360;2023-12-20T12:30:43;40.47;;;22.23;;
6388;SDS011;3227;42.654;23.360;2023-12-20T12:33:24;43.47;;;21.97;;
6388;SDS011;3227;42.654;23.360;2023-12-20T12:35:50;41.07;;;21.37;;
6388;SDS011;3227;42.654;23.360;2023-12-20T12:38:19;46.60;;;24.00;;
6388;SDS011;3227;42.654;23.360;2023-12-20T12:40:46;49.70;;;26.47;;
6388;SDS011;3227;42.654;23.360;2023-12-20T12:43:13;46.67;;;24.27;;
6388;SDS011;3227;42.654;23.360;2023-12-20T12:45:40;43.90;;;23.10;;
6388;SDS011;3227;42.654;23.360;2023-12-20T12:48:07;41.50;;;22.07;;
6388;SDS011;3227;42.654;23.360;2023-12-20T12:50:35;42.47;;;22.40;;
6388;SDS011;3227;42.654;23.360;2023-12-20T12:53:02;38.60;;;21.53;;
6388;SDS011;3227;42.654;23.360;2023-12-20T12:55:29;40.90;;;21.70;;
6388;SDS011;3227;42.654;23.360;2023-12-20T12:57:55;47.03;;;21.80;;
6388;SDS011;3227;42.654;23.360;2023-12-20T13:00:22;45.47;;;24.03;;
6388;SDS011;3227;42.654;23.360;2023-12-20T13:02:50;48.67;;;23.50;;
6388;SDS011;3227;42.654;23.360;2023-12-20T13:05:16;45.70;;;22.33;;
6388;SDS011;3227;42.654;23.360;2023-12-20T13:07:45;54.63;;;24.80;;
6388;SDS011;3227;42.654;23.360;2023-12-20T13:10:13;52.03;;;24.50;;
6388;SDS011;3227;42.654;23.360;2023-12-20T13:12:41;54.80;;;26.50;;
6388;SDS011;3227;42.654;23.360;2023-12-20T13:15:08;57.97;;;25.63;;
6388;SDS011;3227;42.654;23.360;2023-12-20T13:17:35;49.77;;;25.90;;
6388;SDS011;3227;42.654;23.360;2023-12-20T13:20:02;62.37;;;27.47;;
6388;SDS011;3227;42.654;23.360;2023-12-20T13:22:31;53.47;;;25.43;;
6388;SDS011;3227;42.654;23.360;2023-12-20T13:24:59;49.27;;;25.47;;
6388;SDS011;3227;42.654;23.360;2023-12-20T13:27:28;59.17;;;26.27;;
6388;SDS011;3227;42.654;23.360;2023-12-20T13:29:54;54.40;;;26.07;;
6388;SDS011;3227;42.654;23.360;2023-12-20T13:32:21;55.50;;;26.17;;
6388;SDS011;3227;42.654;23.360;2023-12-20T13:34:48;57.10;;;25.77;;
6388;SDS011;3227;42.654;23.360;2023-12-20T13:37:15;62.13;;;27.43;;
6388;SDS011;3227;42.654;23.360;2023-12-20T13:39:41;64.23;;;27.43;;
6388;SDS011;3227;42.654;23.360;2023-12-20T13:42:10;76.53;;;27.80;;
6388;SDS011;3227;42.654;23.360;2023-12-20T13:44:36;55.23;;;25.30;;
6388;SDS011;3227;42.654;23.360;2023-12-20T13:47:03;60.07;;;28.07;;
6388;SDS011;3227;42.654;23.360;2023-12-20T13:49:31;62.43;;;27.97;;
6388;SDS011;3227;42.654;23.360;2023-12-20T13:51:58;51.87;;;26.27;;
6388;SDS011;3227;42.654;23.360;2023-12-20T13:54:25;57.33;;;25.23;;
6388;SDS011;3227;42.654;23.360;2023-12-20T13:56:51;67.83;;;25.97;;
6388;SDS011;3227;42.654;23.360;2023-12-20T13:59:20;57.90;;;28.13;;
6388;SDS011;3227;42.654;23.360;2023-12-20T14:01:46;57.77;;;24.93;;
6388;SDS011;3227;42.654;23.360;2023-12-20T14:04:14;65.87;;;27.87;;
6388;SDS011;3227;42.654;23.360;2023-12-20T14:06:41;54.53;;;25.13;;
6388;SDS011;3227;42.654;23.360;2023-12-20T14:09:08;63.13;;;26.60;;
6388;SDS011;3227;42.654;23.360;2023-12-20T14:11:37;68.07;;;26.40;;
6388;SDS011;3227;42.654;23.360;2023-12-20T14:14:06;62.27;;;26.60;;
6388;SDS011;3227;42.654;23.360;2023-12-20T14:16:34;65.53;;;27.17;;
6388;SDS011;3227;42.654;23.360;2023-12-20T14:19:01;57.33;;;25.63;;
6388;SDS011;3227;42.654;23.360;2023-12-20T14:21:28;57.07;;;24.77;;
6388;SDS011;3227;42.654;23.360;2023-12-20T14:23:55;54.17;;;23.60;;
6388;SDS011;3227;42.654;23.360;2023-12-20T14:26:22;67.13;;;25.83;;
6388;SDS011;3227;42.654;23.360;2023-12-20T14:28:49;61.50;;;27.27;;
6388;SDS011;3227;42.654;23.360;2023-12-20T14:31:15;60.73;;;27.43;;
6388;SDS011;3227;42.654;23.360;2023-12-20T14:33:44;55.07;;;24.83;;
6388;SDS011;3227;42.654;23.360;2023-12-20T14:36:11;64.60;;;26.27;;
6388;SDS011;3227;42.654;23.360;2023-12-20T14:38:38;58.40;;;25.67;;
6388;SDS011;3227;42.654;23.360;2023-12-20T14:41:04;56.50;;;25.73;;